Time;durP1;ratioP1;P1;durP2;ratioP2;P2;SDS_P1;SDS_P2;PMS_P1;PMS_P2;Temp;Humidity;BMP_temperature;BMP_pressure;BME280_temperature;BME280_humidity;BME280_pressure;Samples;Min_cycle;Max_cycle;Signal;HPM_P1;HPM_P2
2024/03/18 00:02:01;;;;;;;0.50;0.50;;;;;;;;;;5014652;28;20097;-79
2024/03/18 00:04:27;;;;;;;0.40;0.40;;;;;;;;;;5022916;28;20026;-79
2024/03/18 00:06:53;;;;;;;0.45;0.32;;;;;;;;;;5024062;28;20025;-79
2024/03/18 00:09:20;;;;;;;0.32;0.30;;;;;;;;;;5031511;28;20116;-79
2024/03/18 00:11:46;;;;;;;0.40;0.40;;;;;;;;;;5024906;28;20029;-78
2024/03/18 00:14:13;;;;;;;0.32;0.32;;;;;;;;;;5025331;28;20026;-79
2024/03/18 00:16:39;;;;;;;1.00;0.35;;;;;;;;;;5030124;28;20018;-78
2024/03/18 00:19:05;;;;;;;1.27;0.40;;;;;;;;;;5035977;28;20472;-81
2024/03/18 00:21:31;;;;;;;0.50;0.28;;;;;;;;;;5014719;28;20036;-79
2024/03/18 00:23:58;;;;;;;0.40;0.40;;;;;;;;;;5021141;28;20036;-80
2024/03/18 00:26:24;;;;;;;0.30;0.30;;;;;;;;;;5029245;28;20033;-80
2024/03/18 00:28:52;;;;;;;0.68;0.40;;;;;;;;;;5035059;28;20104;-79
2024/03/18 00:31:19;;;;;;;0.20;0.20;;;;;;;;;;5033031;28;20074;-79
2024/03/18 00:33:45;;;;;;;0.35;0.35;;;;;;;;;;5007623;28;20045;-80
2024/03/18 00:36:11;;;;;;;0.30;0.30;;;;;;;;;;5022471;28;20044;-79
2024/03/18 00:38:38;;;;;;;0.55;0.50;;;;;;;;;;5042966;28;20179;-79
2024/03/18 00:43:49;;;;;;;0.75;0.40;;;;;;;;;;5024265;28;20036;-78
2024/03/18 00:46:15;;;;;;;2.03;0.75;;;;;;;;;;5016472;28;20053;-78
2024/03/18 00:48:41;;;;;;;1.25;0.60;;;;;;;;;;5016031;28;20044;-78
2024/03/18 00:51:08;;;;;;;1.08;0.60;;;;;;;;;;5016115;28;20469;-79
2024/03/18 00:53:34;;;;;;;0.63;0.55;;;;;;;;;;5014095;28;20464;-78
2024/03/18 00:56:06;;;;;;;0.55;0.55;;;;;;;;;;5031880;28;20042;-78
2024/03/18 00:58:32;;;;;;;;;;;;;;;;;;5018150;28;20105;-78
2024/03/18 01:00:58;;;;;;;1.73;0.50;;;;;;;;;;5032308;28;19943;-78
2024/03/18 01:03:24;;;;;;;1.05;0.88;;;;;;;;;;5018337;28;20526;-79
2024/03/18 01:05:50;;;;;;;0.82;0.70;;;;;;;;;;5034306;28;20029;-79
2024/03/18 01:08:16;;;;;;;2.63;0.65;;;;;;;;;;5033237;28;20433;-79
2024/03/18 01:10:43;;;;;;;0.80;0.80;;;;;;;;;;5020192;28;20022;-79
2024/03/18 01:13:11;;;;;;;2.65;0.73;;;;;;;;;;5032654;28;20392;-78
2024/03/18 01:15:40;;;;;;;1.02;0.52;;;;;;;;;;5017358;28;20150;-78
2024/03/18 01:18:06;;;;;;;1.38;0.40;;;;;;;;;;5042906;28;20027;-78
2024/03/18 01:20:36;;;;;;;0.45;0.45;;;;;;;;;;5025778;28;20097;-79
2024/03/18 01:23:02;;;;;;;0.50;0.50;;;;;;;;;;5034946;28;20021;-78
2024/03/18 01:25:29;;;;;;;0.50;0.50;;;;;;;;;;5026392;28;20109;-79
2024/03/18 01:27:55;;;;;;;0.70;0.52;;;;;;;;;;5022103;28;20062;-78
2024/03/18 01:30:24;;;;;;;0.68;0.40;;;;;;;;;;5025276;28;20099;-79
2024/03/18 01:32:52;;;;;;;0.40;0.40;;;;;;;;;;5016117;28;20052;-79
2024/03/18 01:35:19;;;;;;;0.68;0.60;;;;;;;;;;5016535;28;20030;-78
2024/03/18 01:37:45;;;;;;;0.50;0.50;;;;;;;;;;5017219;28;20018;-78
2024/03/18 01:40:12;;;;;;;1.02;0.70;;;;;;;;;;5023713;28;20029;-78
2024/03/18 01:42:41;;;;;;;0.45;0.40;;;;;;;;;;5041382;28;20060;-77
2024/03/18 01:45:11;;;;;;;0.30;0.30;;;;;;;;;;5019985;28;20032;-78
2024/03/18 01:47:39;;;;;;;0.40;0.40;;;;;;;;;;5017742;28;20053;-78
2024/03/18 01:50:09;;;;;;;0.75;0.32;;;;;;;;;;5018886;28;20025;-78
2024/03/18 01:52:36;;;;;;;0.47;0.45;;;;;;;;;;5015720;28;20041;-78
2024/03/18 01:55:02;;;;;;;0.40;0.40;;;;;;;;;;5010512;28;20091;-78
2024/03/18 01:57:30;;;;;;;0.50;0.50;;;;;;;;;;5016532;28;20032;-79
2024/03/18 01:59:57;;;;;;;0.32;0.32;;;;;;;;;;5024576;28;20049;-78
2024/03/18 02:02:26;;;;;;;0.20;0.20;;;;;;;;;;5017951;28;20131;-78
2024/03/18 02:04:52;;;;;;;0.20;0.20;;;;;;;;;;5032310;28;20026;-79
2024/03/18 02:07:18;;;;;;;0.22;0.22;;;;;;;;;;5038227;28;20077;-78
2024/03/18 02:09:45;;;;;;;0.38;0.38;;;;;;;;;;5018195;28;20411;-78
2024/03/18 02:12:11;;;;;;;0.90;0.52;;;;;;;;;;5030238;28;20455;-78
2024/03/18 02:14:37;;;;;;;0.47;0.38;;;;;;;;;;5018868;28;20029;-77
2024/03/18 02:17:06;;;;;;;1.02;0.60;;;;;;;;;;5019164;28;20043;-78
2024/03/18 02:19:32;;;;;;;1.15;0.80;;;;;;;;;;5042096;28;20041;-77
2024/03/18 02:22:03;;;;;;;0.38;0.38;;;;;;;;;;5044860;28;20062;-78
2024/03/18 02:24:29;;;;;;;0.52;0.35;;;;;;;;;;5045667;28;20032;-78
2024/03/18 02:26:55;;;;;;;1.75;0.40;;;;;;;;;;5034163;28;20013;-77
2024/03/18 02:29:21;;;;;;;0.60;0.40;;;;;;;;;;5055108;28;20032;-78
2024/03/18 02:31:47;;;;;;;0.50;0.50;;;;;;;;;;5051017;28;20057;-78
2024/03/18 02:34:14;;;;;;;0.38;0.38;;;;;;;;;;5037533;28;20140;-78
2024/03/18 02:36:40;;;;;;;0.32;0.32;;;;;;;;;;5019643;28;20025;-79
2024/03/18 02:39:07;;;;;;;0.63;0.50;;;;;;;;;;5031931;28;20034;-79
2024/03/18 02:41:34;;;;;;;0.20;0.20;;;;;;;;;;5020215;28;20022;-79
2024/03/18 02:44:00;;;;;;;0.70;0.30;;;;;;;;;;5011473;28;20029;-79
2024/03/18 02:46:26;;;;;;;0.70;0.50;;;;;;;;;;5006170;28;20042;-79
2024/03/18 02:48:52;;;;;;;0.20;0.20;;;;;;;;;;5037542;28;20026;-79
2024/03/18 02:51:18;;;;;;;0.40;0.40;;;;;;;;;;5017288;28;20131;-79
2024/03/18 02:53:45;;;;;;;0.75;0.38;;;;;;;;;;5025085;28;20025;-79
2024/03/18 02:56:11;;;;;;;0.82;0.60;;;;;;;;;;5020817;28;20116;-78
2024/03/18 02:58:38;;;;;;;0.28;0.28;;;;;;;;;;5024616;28;20026;-78
2024/03/18 03:01:04;;;;;;;1.00;0.38;;;;;;;;;;5030130;28;20111;-78
2024/03/18 03:03:30;;;;;;;0.52;0.22;;;;;;;;;;5022297;28;20108;-79
2024/03/18 03:05:56;;;;;;;0.30;0.30;;;;;;;;;;5023316;28;20018;-78
2024/03/18 03:08:22;;;;;;;0.47;0.30;;;;;;;;;;5024848;28;20022;-78
2024/03/18 03:10:48;;;;;;;0.38;0.30;;;;;;;;;;5023680;28;20365;-77
2024/03/18 03:13:15;;;;;;;0.40;0.40;;;;;;;;;;5038323;28;20033;-79
2024/03/18 03:15:41;;;;;;;0.22;0.22;;;;;;;;;;5015207;28;20045;-78
2024/03/18 03:18:07;;;;;;;0.40;0.40;;;;;;;;;;5018351;28;20026;-77
2024/03/18 03:20:35;;;;;;;0.73;0.50;;;;;;;;;;5039130;28;20177;-79
2024/03/18 03:23:01;;;;;;;0.40;0.40;;;;;;;;;;5030886;28;20072;-79
2024/03/18 03:25:27;;;;;;;0.50;0.40;;;;;;;;;;5020389;28;20033;-78
2024/03/18 03:27:57;;;;;;;0.30;0.28;;;;;;;;;;5025790;28;20022;-78
2024/03/18 03:30:24;;;;;;;0.70;0.40;;;;;;;;;;5022302;28;20056;-78
2024/03/18 03:32:50;;;;;;;0.40;0.30;;;;;;;;;;5021227;28;20133;-78
2024/03/18 03:35:16;;;;;;;0.30;0.30;;;;;;;;;;5021291;28;20548;-78
2024/03/18 03:37:43;;;;;;;0.30;0.30;;;;;;;;;;5023695;28;20034;-79
2024/03/18 03:40:11;;;;;;;0.22;0.22;;;;;;;;;;5006679;28;20041;-78
2024/03/18 03:42:38;;;;;;;0.43;0.20;;;;;;;;;;5025308;28;20022;-79
2024/03/18 03:45:04;;;;;;;0.13;0.13;;;;;;;;;;5021520;28;20078;-79
2024/03/18 03:47:30;;;;;;;0.32;0.32;;;;;;;;;;5025676;28;20089;-79
2024/03/18 03:49:56;;;;;;;0.20;0.20;;;;;;;;;;5020712;28;20054;-79
2024/03/18 03:52:22;;;;;;;0.20;0.20;;;;;;;;;;5012834;28;20026;-79
2024/03/18 03:54:49;;;;;;;0.68;0.35;;;;;;;;;;5029678;28;20057;-79
2024/03/18 03:57:16;;;;;;;0.30;0.30;;;;;;;;;;5018333;28;20109;-79
2024/03/18 03:59:42;;;;;;;0.22;0.22;;;;;;;;;;5019538;28;20021;-78
2024/03/18 04:02:10;;;;;;;0.70;0.20;;;;;;;;;;5004055;28;20375;-78
2024/03/18 04:04:36;;;;;;;0.30;0.30;;;;;;;;;;5020019;28;20400;-78
2024/03/18 04:07:02;;;;;;;0.20;0.20;;;;;;;;;;5005671;28;20025;-79
2024/03/18 04:09:28;;;;;;;0.20;0.20;;;;;;;;;;5021354;28;20554;-78
2024/03/18 04:11:55;;;;;;;0.32;0.32;;;;;;;;;;5015532;28;20032;-78
2024/03/18 04:14:21;;;;;;;0.10;0.10;;;;;;;;;;5016010;28;20090;-79
2024/03/18 04:16:47;;;;;;;0.20;0.20;;;;;;;;;;5016670;28;20044;-78
2024/03/18 04:19:14;;;;;;;0.20;0.20;;;;;;;;;;5021610;28;20022;-79
2024/03/18 04:21:40;;;;;;;0.28;0.20;;;;;;;;;;5005036;28;20124;-78
2024/03/18 04:24:08;;;;;;;0.30;0.30;;;;;;;;;;5015983;28;20045;-78
2024/03/18 04:26:35;;;;;;;0.30;0.30;;;;;;;;;;5016261;28;20022;-78
2024/03/18 04:29:01;;;;;;;0.20;0.20;;;;;;;;;;5020986;28;20033;-79
2024/03/18 04:31:27;;;;;;;0.20;0.20;;;;;;;;;;5003473;28;20045;-78
2024/03/18 04:33:53;;;;;;;0.32;0.20;;;;;;;;;;5022841;28;20121;-78
2024/03/18 04:36:19;;;;;;;0.30;0.28;;;;;;;;;;5013070;28;20089;-78
2024/03/18 04:38:46;;;;;;;0.30;0.30;;;;;;;;;;5028409;28;20030;-78
2024/03/18 04:41:13;;;;;;;0.30;0.30;;;;;;;;;;5047044;28;20041;-79
2024/03/18 04:43:39;;;;;;;0.43;0.20;;;;;;;;;;5046909;28;20025;-79
2024/03/18 04:46:06;;;;;;;0.65;0.25;;;;;;;;;;5033976;28;20057;-78
2024/03/18 04:48:32;;;;;;;0.43;0.20;;;;;;;;;;5022149;28;20026;-80
2024/03/18 04:50:59;;;;;;;0.20;0.20;;;;;;;;;;5023641;28;20042;-80
2024/03/18 04:53:25;;;;;;;0.20;0.20;;;;;;;;;;5025455;28;20074;-79
2024/03/18 04:55:51;;;;;;;0.10;0.10;;;;;;;;;;5018577;28;20037;-78
2024/03/18 04:58:17;;;;;;;0.10;0.10;;;;;;;;;;5006587;28;20029;-79
2024/03/18 05:00:43;;;;;;;0.22;0.10;;;;;;;;;;5018380;28;20552;-79
2024/03/18 05:03:10;;;;;;;0.22;0.20;;;;;;;;;;5015158;28;20018;-78
2024/03/18 05:05:37;;;;;;;0.22;0.20;;;;;;;;;;5017553;28;20034;-78
2024/03/18 05:08:04;;;;;;;0.10;0.10;;;;;;;;;;5018476;28;20033;-79
2024/03/18 05:10:30;;;;;;;0.30;0.30;;;;;;;;;;5036978;28;20032;-78
2024/03/18 05:13:01;;;;;;;0.10;0.10;;;;;;;;;;5038220;28;20021;-78
2024/03/18 05:15:28;;;;;;;0.55;0.20;;;;;;;;;;5029433;28;20037;-77
2024/03/18 05:17:54;;;;;;;0.20;0.20;;;;;;;;;;5035349;28;20037;-77
2024/03/18 05:20:21;;;;;;;0.15;0.15;;;;;;;;;;5038476;28;20018;-78
2024/03/18 05:22:47;;;;;;;0.38;0.38;;;;;;;;;;5033899;28;20048;-79
2024/03/18 05:25:15;;;;;;;0.40;0.25;;;;;;;;;;5040891;28;20021;-79
2024/03/18 05:27:41;;;;;;;0.20;0.20;;;;;;;;;;5024442;28;20025;-80
2024/03/18 05:30:07;;;;;;;0.20;0.20;;;;;;;;;;5025590;28;20045;-78
2024/03/18 05:32:35;;;;;;;0.40;0.20;;;;;;;;;;5032615;28;20063;-77
2024/03/18 05:35:01;;;;;;;0.52;0.15;;;;;;;;;;5040067;28;20050;-77
2024/03/18 05:37:28;;;;;;;0.20;0.20;;;;;;;;;;5046685;28;20018;-78
2024/03/18 05:39:54;;;;;;;0.10;0.10;;;;;;;;;;5051303;28;20049;-77
2024/03/18 05:42:23;;;;;;;0.13;0.13;;;;;;;;;;5023561;28;20073;-78
2024/03/18 05:44:50;;;;;;;0.35;0.20;;;;;;;;;;5005943;28;20121;-78
2024/03/18 05:47:16;;;;;;;0.25;0.20;;;;;;;;;;5021440;28;20106;-78
2024/03/18 05:49:42;;;;;;;0.28;0.20;;;;;;;;;;5024523;28;20109;-78
2024/03/18 05:52:08;;;;;;;0.20;0.10;;;;;;;;;;5020217;28;20018;-78
2024/03/18 05:54:34;;;;;;;0.50;0.20;;;;;;;;;;5018570;28;20068;-78
2024/03/18 05:57:00;;;;;;;0.10;0.10;;;;;;;;;;5008326;28;20164;-78
2024/03/18 05:59:37;;;;;;;0.13;0.13;;;;;;;;;;5028289;28;20017;-78
2024/03/18 06:02:03;;;;;;;0.43;0.17;;;;;;;;;;5022144;28;20093;-76
2024/03/18 06:04:30;;;;;;;0.17;0.10;;;;;;;;;;5014994;28;20061;-78
2024/03/18 06:06:59;;;;;;;0.10;0.10;;;;;;;;;;5033147;28;20232;-77
2024/03/18 06:09:26;;;;;;;0.10;0.10;;;;;;;;;;5025478;28;20026;-78
2024/03/18 06:11:52;;;;;;;0.20;0.20;;;;;;;;;;5020664;28;20022;-77
2024/03/18 06:14:18;;;;;;;0.13;0.13;;;;;;;;;;5018041;28;20419;-77
2024/03/18 06:16:45;;;;;;;0.32;0.20;;;;;;;;;;5012407;28;20033;-77
2024/03/18 06:19:14;;;;;;;0.10;0.10;;;;;;;;;;5019867;28;20025;-77
2024/03/18 06:21:42;;;;;;;0.30;0.30;;;;;;;;;;5023849;28;20013;-77
2024/03/18 06:24:20;;;;;;;0.10;0.10;;;;;;;;;;5023466;28;20105;-77
2024/03/18 06:26:46;;;;;;;0.40;0.20;;;;;;;;;;5043971;28;20017;-77
2024/03/18 06:29:13;;;;;;;0.00;0.00;;;;;;;;;;5025501;28;20085;-78
2024/03/18 06:31:39;;;;;;;0.10;0.10;;;;;;;;;;5022586;28;20022;-77
2024/03/18 06:34:05;;;;;;;0.10;0.10;;;;;;;;;;5003236;28;20053;-79
2024/03/18 06:36:32;;;;;;;0.10;0.10;;;;;;;;;;5029714;28;20030;-78
2024/03/18 06:38:58;;;;;;;0.00;0.00;;;;;;;;;;5022408;28;20021;-78
2024/03/18 06:41:24;;;;;;;0.17;0.17;;;;;;;;;;5027423;28;20025;-77
2024/03/18 06:43:51;;;;;;;0.10;0.10;;;;;;;;;;5029513;28;20024;-77
2024/03/18 06:46:17;;;;;;;0.05;0.05;;;;;;;;;;5036624;28;20105;-79
2024/03/18 06:48:43;;;;;;;0.10;0.10;;;;;;;;;;5027985;28;20030;-79
2024/03/18 06:51:16;;;;;;;0.10;0.10;;;;;;;;;;5009202;28;20026;-78
2024/03/18 06:53:42;;;;;;;0.20;0.20;;;;;;;;;;5010953;28;20120;-78
2024/03/18 06:56:09;;;;;;;0.10;0.10;;;;;;;;;;5026906;28;20392;-78
2024/03/18 06:58:38;;;;;;;0.10;0.10;;;;;;;;;;5035314;28;20025;-78
2024/03/18 07:01:05;;;;;;;0.10;0.10;;;;;;;;;;5031311;28;20025;-78
2024/03/18 07:03:32;;;;;;;0.10;0.10;;;;;;;;;;5039086;28;20037;-77
2024/03/18 07:06:01;;;;;;;0.05;0.05;;;;;;;;;;5028611;28;20028;-78
2024/03/18 07:08:28;;;;;;;0.20;0.20;;;;;;;;;;5013027;28;20377;-78
2024/03/18 07:10:54;;;;;;;0.10;0.10;;;;;;;;;;5004292;28;20053;-78
2024/03/18 07:13:20;;;;;;;0.10;0.10;;;;;;;;;;5023906;28;20026;-78
2024/03/18 07:15:46;;;;;;;0.10;0.10;;;;;;;;;;5022558;28;20103;-77
2024/03/18 07:18:12;;;;;;;0.17;0.17;;;;;;;;;;5018552;28;20033;-78
2024/03/18 07:20:39;;;;;;;0.20;0.20;;;;;;;;;;5001967;28;20026;-77
2024/03/18 07:23:05;;;;;;;0.52;0.17;;;;;;;;;;5007397;28;20026;-77
2024/03/18 07:25:31;;;;;;;0.20;0.20;;;;;;;;;;5026238;28;20422;-79
2024/03/18 07:27:58;;;;;;;0.10;0.10;;;;;;;;;;5010239;28;20014;-77
2024/03/18 07:30:24;;;;;;;0.10;0.10;;;;;;;;;;5022186;28;20523;-78
2024/03/18 07:32:50;;;;;;;0.15;0.15;;;;;;;;;;5026946;28;20801;-79
2024/03/18 07:35:16;;;;;;;0.20;0.20;;;;;;;;;;5024948;28;20392;-78
2024/03/18 07:37:43;;;;;;;0.28;0.10;;;;;;;;;;5024327;28;20022;-78
2024/03/18 07:40:13;;;;;;;0.10;0.10;;;;;;;;;;5000162;28;20042;-78
2024/03/18 07:42:42;;;;;;;0.20;0.20;;;;;;;;;;5032569;28;20025;-77
2024/03/18 07:45:08;;;;;;;0.20;0.20;;;;;;;;;;5016123;28;20038;-77
2024/03/18 07:47:35;;;;;;;0.63;0.63;;;;;;;;;;5019729;28;20021;-77
2024/03/18 07:50:03;;;;;;;0.45;0.40;;;;;;;;;;4997887;28;20129;-77
2024/03/18 07:52:30;;;;;;;0.50;0.50;;;;;;;;;;5031616;28;20069;-78
2024/03/18 07:54:58;;;;;;;0.63;0.40;;;;;;;;;;5016936;28;20076;-77
2024/03/18 07:57:27;;;;;;;0.30;0.30;;;;;;;;;;5026838;28;20083;-78
2024/03/18 07:59:54;;;;;;;0.30;0.30;;;;;;;;;;5035321;28;20021;-79
2024/03/18 08:02:20;;;;;;;0.82;0.40;;;;;;;;;;5036493;28;20481;-79
2024/03/18 08:04:46;;;;;;;1.10;0.40;;;;;;;;;;5006686;28;20064;-79
2024/03/18 08:07:12;;;;;;;0.28;0.28;;;;;;;;;;5018184;28;20452;-79
2024/03/18 08:09:38;;;;;;;0.20;0.20;;;;;;;;;;5030817;28;20037;-79
2024/03/18 08:12:05;;;;;;;0.22;0.22;;;;;;;;;;5032631;28;20037;-79
2024/03/18 08:14:32;;;;;;;0.30;0.30;;;;;;;;;;5027944;28;20034;-80
2024/03/18 08:17:01;;;;;;;0.35;0.32;;;;;;;;;;5001364;28;20093;-79
2024/03/18 08:19:27;;;;;;;0.32;0.32;;;;;;;;;;5026343;28;20036;-79
2024/03/18 08:21:53;;;;;;;0.40;0.40;;;;;;;;;;5023587;28;20029;-81
2024/03/18 08:24:19;;;;;;;0.45;0.32;;;;;;;;;;5040916;28;20040;-80
2024/03/18 08:26:46;;;;;;;0.30;0.30;;;;;;;;;;5027460;28;20080;-79
2024/03/18 08:29:12;;;;;;;0.55;0.50;;;;;;;;;;5025060;28;20484;-78
2024/03/18 08:31:38;;;;;;;0.77;0.40;;;;;;;;;;4999663;28;20101;-78
2024/03/18 08:34:04;;;;;;;0.43;0.40;;;;;;;;;;5018221;28;20021;-79
2024/03/18 08:36:30;;;;;;;0.40;0.30;;;;;;;;;;5018510;28;20473;-79
2024/03/18 08:38:57;;;;;;;0.40;0.40;;;;;;;;;;5026860;28;20018;-78
2024/03/18 08:41:24;;;;;;;0.88;0.40;;;;;;;;;;5018600;28;20025;-80
2024/03/18 08:43:50;;;;;;;0.63;0.20;;;;;;;;;;5030333;28;20044;-78
2024/03/18 08:46:16;;;;;;;0.75;0.30;;;;;;;;;;5032787;28;20030;-79
2024/03/18 08:48:45;;;;;;;0.30;0.30;;;;;;;;;;5020373;28;20029;-79
2024/03/18 08:51:13;;;;;;;0.35;0.35;;;;;;;;;;5001166;28;20477;-78
2024/03/18 08:53:39;;;;;;;0.40;0.40;;;;;;;;;;5018070;28;20018;-78
2024/03/18 08:56:05;;;;;;;0.22;0.22;;;;;;;;;;5008419;28;20089;-79
2024/03/18 08:58:31;;;;;;;0.52;0.30;;;;;;;;;;5019774;28;20037;-78
2024/03/18 09:00:57;;;;;;;0.52;0.40;;;;;;;;;;5018651;28;20041;-77
2024/03/18 09:03:23;;;;;;;0.17;0.17;;;;;;;;;;5016344;28;20473;-76
2024/03/18 09:05:54;;;;;;;0.47;0.20;;;;;;;;;;4996971;28;20033;-74
2024/03/18 09:08:21;;;;;;;0.10;0.10;;;;;;;;;;5031883;28;20143;-75
2024/03/18 09:10:48;;;;;;;0.10;0.10;;;;;;;;;;4997742;28;20033;-75
2024/03/18 09:13:14;;;;;;;0.10;0.10;;;;;;;;;;5002186;28;20078;-75
2024/03/18 09:15:41;;;;;;;0.20;0.20;;;;;;;;;;5015374;28;20036;-76
2024/03/18 09:18:07;;;;;;;0.10;0.10;;;;;;;;;;5010831;28;20037;-74
2024/03/18 09:20:33;;;;;;;0.20;0.20;;;;;;;;;;5033643;28;20041;-75
2024/03/18 09:22:59;;;;;;;0.10;0.10;;;;;;;;;;5033355;28;20025;-76
2024/03/18 09:25:25;;;;;;;0.30;0.22;;;;;;;;;;5016019;28;20021;-74
2024/03/18 09:27:51;;;;;;;0.25;0.25;;;;;;;;;;5023798;28;20029;-78
2024/03/18 09:30:17;;;;;;;0.30;0.30;;;;;;;;;;5029086;28;20059;-80
2024/03/18 09:32:44;;;;;;;1.15;0.40;;;;;;;;;;5022932;28;20026;-80
2024/03/18 09:35:10;;;;;;;0.32;0.32;;;;;;;;;;5032483;28;20041;-80
2024/03/18 09:37:36;;;;;;;0.20;0.20;;;;;;;;;;5044411;28;20063;-80
2024/03/18 09:40:02;;;;;;;0.20;0.20;;;;;;;;;;5033825;28;20063;-79
2024/03/18 09:42:29;;;;;;;0.30;0.30;;;;;;;;;;5024834;28;20140;-80
2024/03/18 09:44:55;;;;;;;0.20;0.20;;;;;;;;;;5022247;28;20060;-81
2024/03/18 09:47:23;;;;;;;1.15;0.30;;;;;;;;;;5035275;28;20013;-79
2024/03/18 09:49:50;;;;;;;0.38;0.30;;;;;;;;;;5030229;28;20022;-79
2024/03/18 09:52:17;;;;;;;0.20;0.20;;;;;;;;;;5027319;28;20128;-77
2024/03/18 09:54:45;;;;;;;0.20;0.20;;;;;;;;;;5034999;28;20029;-79
2024/03/18 09:57:16;;;;;;;0.30;0.30;;;;;;;;;;5018877;28;20029;-79
2024/03/18 09:59:43;;;;;;;0.52;0.20;;;;;;;;;;5003142;28;20030;-79
2024/03/18 10:02:18;;;;;;;1.10;0.30;;;;;;;;;;4999536;28;20069;-79
2024/03/18 10:04:45;;;;;;;0.40;0.40;;;;;;;;;;5022044;28;20034;-79
2024/03/18 10:07:18;;;;;;;0.20;0.20;;;;;;;;;;5011493;28;20465;-80
2024/03/18 10:09:48;;;;;;;0.20;0.20;;;;;;;;;;5018357;28;20021;-80
2024/03/18 10:12:15;;;;;;;0.47;0.35;;;;;;;;;;5026776;28;20392;-79
2024/03/18 10:14:41;;;;;;;0.20;0.20;;;;;;;;;;5027387;28;20572;-79
2024/03/18 10:17:13;;;;;;;0.35;0.35;;;;;;;;;;5027525;28;20388;-80
2024/03/18 10:19:39;;;;;;;;;;;;;;;;;;5027648;28;20017;-79
2024/03/18 10:22:10;;;;;;;0.25;0.25;;;;;;;;;;5011504;28;20002;-79
2024/03/18 10:24:36;;;;;;;0.20;0.20;;;;;;;;;;5037819;28;20025;-79
2024/03/18 10:27:02;;;;;;;0.15;0.15;;;;;;;;;;5033264;28;20030;-79
2024/03/18 10:29:28;;;;;;;0.20;0.20;;;;;;;;;;5022413;28;20033;-78
2024/03/18 10:31:54;;;;;;;0.20;0.20;;;;;;;;;;5027398;28;20385;-79
2024/03/18 10:34:21;;;;;;;0.30;0.30;;;;;;;;;;5017674;28;20030;-79
2024/03/18 10:36:51;;;;;;;0.30;0.30;;;;;;;;;;5023417;28;20082;-80
2024/03/18 10:39:20;;;;;;;0.30;0.30;;;;;;;;;;5001770;28;20072;-79
2024/03/18 10:41:47;;;;;;;0.50;0.50;;;;;;;;;;5020164;28;20022;-80
2024/03/18 10:44:16;;;;;;;1.17;0.60;;;;;;;;;;5026004;28;20030;-79
2024/03/18 10:46:43;;;;;;;3.75;1.00;;;;;;;;;;5020905;28;20026;-79
2024/03/18 10:49:13;;;;;;;0.73;0.73;;;;;;;;;;5008213;28;20053;-80
2024/03/18 10:51:40;;;;;;;2.33;0.77;;;;;;;;;;5017959;28;20159;-79
2024/03/18 10:54:08;;;;;;;0.57;0.50;;;;;;;;;;5028405;28;20047;-78
2024/03/18 10:56:34;;;;;;;1.35;0.65;;;;;;;;;;5031924;28;20021;-79
2024/03/18 10:59:00;;;;;;;1.50;0.70;;;;;;;;;;5014116;28;20022;-76
2024/03/18 11:01:26;;;;;;;1.45;0.50;;;;;;;;;;5008737;28;20025;-77
2024/03/18 11:03:53;;;;;;;0.88;0.68;;;;;;;;;;5025764;28;20389;-79
2024/03/18 11:06:20;;;;;;;0.82;0.50;;;;;;;;;;5006362;28;20085;-78
2024/03/18 11:08:55;;;;;;;1.90;0.60;;;;;;;;;;5022847;28;20056;-78
2024/03/18 11:11:22;;;;;;;3.15;0.82;;;;;;;;;;5039266;28;20049;-77
2024/03/18 11:13:48;;;;;;;1.75;0.50;;;;;;;;;;5036744;28;20018;-77
2024/03/18 11:16:15;;;;;;;1.23;0.57;;;;;;;;;;5035260;28;20033;-77
2024/03/18 11:18:50;;;;;;;2.80;0.93;;;;;;;;;;5036793;28;20030;-77
2024/03/18 11:21:17;;;;;;;1.02;0.73;;;;;;;;;;5044221;28;20022;-77
2024/03/18 11:23:46;;;;;;;1.10;0.70;;;;;;;;;;5035346;28;20022;-76
2024/03/18 11:26:12;;;;;;;2.03;0.68;;;;;;;;;;5018432;28;20029;-77
2024/03/18 11:28:42;;;;;;;3.00;0.68;;;;;;;;;;5027255;28;20480;-78
2024/03/18 11:31:14;;;;;;;3.72;1.10;;;;;;;;;;5004028;28;20026;-78
2024/03/18 11:33:41;;;;;;;2.17;0.93;;;;;;;;;;5004133;28;20018;-78
2024/03/18 11:36:08;;;;;;;3.45;1.00;;;;;;;;;;5025961;28;20121;-78
2024/03/18 11:38:38;;;;;;;2.10;0.80;;;;;;;;;;5029469;28;20030;-77
2024/03/18 11:41:04;;;;;;;3.95;1.00;;;;;;;;;;5019581;28;20022;-77
2024/03/18 11:43:33;;;;;;;0.70;0.70;;;;;;;;;;5029343;28;20065;-78
2024/03/18 11:46:00;;;;;;;5.53;0.90;;;;;;;;;;5033910;28;20037;-79
2024/03/18 11:48:27;;;;;;;2.20;0.95;;;;;;;;;;5037181;28;20094;-78
2024/03/18 11:50:56;;;;;;;4.20;1.10;;;;;;;;;;5028898;28;20029;-81
2024/03/18 11:53:22;;;;;;;1.48;0.95;;;;;;;;;;5031573;28;20022;-79
2024/03/18 11:55:55;;;;;;;6.50;1.42;;;;;;;;;;5012051;28;20037;-79
2024/03/18 11:58:21;;;;;;;3.25;1.10;;;;;;;;;;5018783;28;20033;-79
2024/03/18 12:00:50;;;;;;;3.33;1.50;;;;;;;;;;5035601;28;20036;-77
2024/03/18 12:03:23;;;;;;;2.45;1.15;;;;;;;;;;5046184;28;20052;-79
2024/03/18 12:05:50;;;;;;;5.95;2.53;;;;;;;;;;5031046;28;20033;-79
2024/03/18 12:08:18;;;;;;;3.20;2.20;;;;;;;;;;5045512;28;20033;-79
2024/03/18 12:10:46;;;;;;;7.18;2.35;;;;;;;;;;5028256;28;20029;-80
2024/03/18 12:13:13;;;;;;;3.03;1.75;;;;;;;;;;5016717;28;20128;-80
2024/03/18 12:15:40;;;;;;;3.55;1.98;;;;;;;;;;5017448;28;20198;-80
2024/03/18 12:18:06;;;;;;;5.00;1.67;;;;;;;;;;5010443;28;20512;-81
2024/03/18 12:20:32;;;;;;;3.72;1.83;;;;;;;;;;5024929;28;20021;-79
2024/03/18 12:23:05;;;;;;;3.10;1.63;;;;;;;;;;5046021;28;20112;-80
2024/03/18 12:28:32;;;;;;;1.98;1.63;;;;;;;;;;5044714;28;19916;-79
2024/03/18 12:30:58;;;;;;;2.85;1.40;;;;;;;;;;5027156;28;20033;-80
2024/03/18 12:33:25;;;;;;;3.25;1.77;;;;;;;;;;5039455;28;20056;-79
2024/03/18 12:35:51;;;;;;;1.98;1.52;;;;;;;;;;5037368;28;20030;-79
2024/03/18 12:38:18;;;;;;;6.28;1.88;;;;;;;;;;5045848;28;20080;-79
2024/03/18 12:40:44;;;;;;;2.47;1.20;;;;;;;;;;5043325;28;20030;-79
2024/03/18 12:43:11;;;;;;;1.52;1.20;;;;;;;;;;5012832;28;20102;-79
2024/03/18 12:45:39;;;;;;;1.17;1.08;;;;;;;;;;5040456;28;20037;-78
2024/03/18 12:48:07;;;;;;;2.58;1.67;;;;;;;;;;5047905;28;20052;-78
2024/03/18 12:50:34;;;;;;;1.42;1.15;;;;;;;;;;5031322;28;20053;-79
2024/03/18 12:53:01;;;;;;;3.90;1.67;;;;;;;;;;5044984;28;20116;-78
2024/03/18 12:55:28;;;;;;;5.47;1.70;;;;;;;;;;5036617;28;20116;-78
2024/03/18 12:57:54;;;;;;;2.90;1.40;;;;;;;;;;5046995;28;20037;-78
2024/03/18 13:00:21;;;;;;;3.38;1.60;;;;;;;;;;5039695;28;20014;-78
2024/03/18 13:02:47;;;;;;;2.63;1.60;;;;;;;;;;5033952;28;20034;-79
2024/03/18 13:05:13;;;;;;;3.00;1.92;;;;;;;;;;5042857;28;20104;-78
2024/03/18 13:07:41;;;;;;;6.85;2.22;;;;;;;;;;5036837;28;20472;-80
2024/03/18 13:10:10;;;;;;;4.57;2.65;;;;;;;;;;5043226;28;20037;-78
2024/03/18 13:12:37;;;;;;;3.35;2.35;;;;;;;;;;5044446;28;20027;-81
2024/03/18 13:15:06;;;;;;;4.28;1.92;;;;;;;;;;5042578;28;20037;-81
2024/03/18 13:17:32;;;;;;;4.43;1.83;;;;;;;;;;5018053;28;20083;-80
2024/03/18 13:20:05;;;;;;;2.85;2.25;;;;;;;;;;5050298;28;20013;-80
2024/03/18 13:22:33;;;;;;;2.58;1.88;;;;;;;;;;5018557;28;20458;-79
2024/03/18 13:24:59;;;;;;;4.97;2.20;;;;;;;;;;5046503;28;20029;-80
2024/03/18 13:27:25;;;;;;;4.45;2.60;;;;;;;;;;5041608;28;20037;-81
2024/03/18 13:29:52;;;;;;;4.95;2.85;;;;;;;;;;5042863;28;20037;-80
2024/03/18 13:32:21;;;;;;;4.65;2.47;;;;;;;;;;5043999;28;20528;-78
2024/03/18 13:34:47;;;;;;;5.85;2.97;;;;;;;;;;5032509;28;20052;-80
2024/03/18 13:37:14;;;;;;;4.55;2.88;;;;;;;;;;5033816;28;20214;-79
2024/03/18 13:39:40;;;;;;;2.83;2.50;;;;;;;;;;5035739;28;20037;-79
2024/03/18 13:42:16;;;;;;;7.90;3.67;;;;;;;;;;5034001;28;20029;-79
2024/03/18 13:44:46;;;;;;;3.95;2.60;;;;;;;;;;5050901;28;20051;-80
2024/03/18 13:47:13;;;;;;;6.00;3.05;;;;;;;;;;5030728;28;20029;-80
2024/03/18 13:49:40;;;;;;;6.30;3.40;;;;;;;;;;5024093;28;20455;-81
2024/03/18 13:52:07;;;;;;;4.40;3.20;;;;;;;;;;5025083;28;20109;-79
2024/03/18 13:54:33;;;;;;;6.63;3.80;;;;;;;;;;5038012;28;20098;-79
2024/03/18 14:00:04;;;;;;;5.47;3.78;;;;;;;;;;5027476;28;20025;-80
2024/03/18 14:02:31;;;;;;;6.45;3.58;;;;;;;;;;5027021;28;20028;-80
2024/03/18 14:04:57;;;;;;;3.95;2.90;;;;;;;;;;5035615;28;20049;-82
2024/03/18 14:07:26;;;;;;;4.50;2.60;;;;;;;;;;5018756;28;20022;-80
2024/03/18 14:09:52;;;;;;;2.50;2.30;;;;;;;;;;5048365;28;20025;-81
2024/03/18 14:12:21;;;;;;;5.80;3.17;;;;;;;;;;5020631;28;20058;-81
2024/03/18 14:14:47;;;;;;;4.53;3.00;;;;;;;;;;5014806;28;20045;-79
2024/03/18 14:17:14;;;;;;;5.82;3.22;;;;;;;;;;5054186;28;20064;-81
2024/03/18 14:19:42;;;;;;;5.00;3.28;;;;;;;;;;5054149;28;20048;-81
2024/03/18 14:22:09;;;;;;;7.55;2.95;;;;;;;;;;5026007;28;20039;-79
2024/03/18 14:24:37;;;;;;;7.22;3.67;;;;;;;;;;5037265;28;20017;-80
2024/03/18 14:27:03;;;;;;;5.50;3.40;;;;;;;;;;5051729;28;20037;-79
2024/03/18 14:29:29;;;;;;;3.58;2.90;;;;;;;;;;5023051;28;20099;-80
2024/03/18 14:31:55;;;;;;;3.92;3.53;;;;;;;;;;5043914;28;20050;-79
2024/03/18 14:34:21;;;;;;;5.00;3.30;;;;;;;;;;5038171;28;20030;-78
2024/03/18 14:36:48;;;;;;;7.43;4.13;;;;;;;;;;5025728;28;20021;-79
2024/03/18 14:39:17;;;;;;;7.32;4.22;;;;;;;;;;5028630;28;20017;-79
2024/03/18 14:41:43;;;;;;;6.30;3.90;;;;;;;;;;5023360;28;20025;-78
2024/03/18 14:44:09;;;;;;;5.28;4.30;;;;;;;;;;5047019;28;20026;-78
2024/03/18 14:46:35;;;;;;;6.20;4.05;;;;;;;;;;5038900;28;20044;-78
2024/03/18 14:49:02;;;;;;;5.63;3.95;;;;;;;;;;5039482;28;20606;-78
2024/03/18 14:51:30;;;;;;;3.90;2.90;;;;;;;;;;5049669;28;20081;-78